sensor_id;sensor_type;location;lat;lon;timestamp;pressure;altitude;pressure_sealevel;temperature;humidity
13348;BME280;6743;49.934;9.138;2023-12-20T00:00:20;100414.56;;;4.79;100.00
13348;BME280;6743;49.934;9.138;2023-12-20T00:02:46;100418.88;;;4.80;100.00
13348;BME280;6743;49.934;9.138;2023-12-20T00:05:12;100418.03;;;4.80;100.00
13348;BME280;6743;49.934;9.138;2023-12-20T00:07:40;100411.09;;;4.79;100.00
13348;BME280;6743;49.934;9.138;2023-12-20T00:10:06;100418.88;;;4.80;100.00
13348;BME280;6743;49.934;9.138;2023-12-20T00:12:33;100402.66;;;4.75;100.00
13348;BME280;6743;49.934;9.138;2023-12-20T00:14:59;100401.19;;;4.82;100.00
13348;BME280;6743;49.934;9.138;2023-12-20T00:17:26;100408.25;;;4.82;100.00
13348;BME280;6743;49.934;9.138;2023-12-20T00:19:52;100402.16;;;4.81;100.00
13348;BME280;6743;49.934;9.138;2023-12-20T00:22:18;100402.16;;;4.81;100.00
13348;BME280;6743;49.934;9.138;2023-12-20T00:24:45;100393.31;;;4.82;100.00
13348;BME280;6743;49.934;9.138;2023-12-20T00:27:11;100390.69;;;4.82;100.00
13348;BME280;6743;49.934;9.138;2023-12-20T00:29:38;100392.47;;;4.82;100.00
13348;BME280;6743;49.934;9.138;2023-12-20T00:32:04;100389.84;;;4.82;100.00
13348;BME280;6743;49.934;9.138;2023-12-20T00:34:30;100395.94;;;4.82;100.00
13348;BME280;6743;49.934;9.138;2023-12-20T00:36:56;100388.91;;;4.83;100.00
13348;BME280;6743;49.934;9.138;2023-12-20T00:39:22;100393.19;;;4.84;100.00
13348;BME280;6743;49.934;9.138;2023-12-20T00:41:50;100387.94;;;4.84;100.00
13348;BME280;6743;49.934;9.138;2023-12-20T00:44:16;100380.84;;;4.84;100.00
13348;BME280;6743;49.934;9.138;2023-12-20T00:46:42;100378.22;;;4.84;100.00
13348;BME280;6743;49.934;9.138;2023-12-20T00:49:08;100387.78;;;4.85;100.00
13348;BME280;6743;49.934;9.138;2023-12-20T00:51:34;100373.47;;;4.78;100.00
13348;BME280;6743;49.934;9.138;2023-12-20T00:54:00;100390.28;;;4.87;100.00
13348;BME280;6743;49.934;9.138;2023-12-20T00:56:26;100385.87;;;4.87;100.00
13348;BME280;6743;49.934;9.138;2023-12-20T00:58:53;100382.41;;;4.87;100.00
13348;BME280;6743;49.934;9.138;2023-12-20T01:01:19;100380.63;;;4.87;100.00
13348;BME280;6743;49.934;9.138;2023-12-20T01:03:45;100370.94;;;4.88;100.00
13348;BME280;6743;49.934;9.138;2023-12-20T01:06:12;100373.69;;;4.86;100.00
13348;BME280;6743;49.934;9.138;2023-12-20T01:08:38;100371.06;;;4.86;100.00
13348;BME280;6743;49.934;9.138;2023-12-20T01:11:05;100373.69;;;4.86;100.00
13348;BME280;6743;49.934;9.138;2023-12-20T01:13:31;100370.22;;;4.86;100.00
13348;BME280;6743;49.934;9.138;2023-12-20T01:15:57;100372.97;;;4.84;100.00
13348;BME280;6743;49.934;9.138;2023-12-20T01:18:23;100373.81;;;4.85;100.00
13348;BME280;6743;49.934;9.138;2023-12-20T01:20:49;100372.16;;;4.84;100.00
13348;BME280;6743;49.934;9.138;2023-12-20T01:23:16;100371.34;;;4.83;100.00
13348;BME280;6743;49.934;9.138;2023-12-20T01:25:42;100366.06;;;4.83;100.00
13348;BME280;6743;49.934;9.138;2023-12-20T01:28:08;100371.34;;;4.83;100.00
13348;BME280;6743;49.934;9.138;2023-12-20T01:30:34;100363.44;;;4.83;100.00
13348;BME280;6743;49.934;9.138;2023-12-20T01:33:01;100371.34;;;4.83;100.00
13348;BME280;6743;49.934;9.138;2023-12-20T01:35:27;100366.91;;;4.84;100.00
13348;BME280;6743;49.934;9.138;2023-12-20T01:37:53;100366.06;;;4.83;100.00
13348;BME280;6743;49.934;9.138;2023-12-20T01:40:22;100366.91;;;4.84;100.00
13348;BME280;6743;49.934;9.138;2023-12-20T01:42:57;100356.41;;;4.84;100.00
13348;BME280;6743;49.934;9.138;2023-12-20T01:45:24;100362.59;;;4.83;100.00
13348;BME280;6743;49.934;9.138;2023-12-20T01:47:50;100366.06;;;4.83;100.00
13348;BME280;6743;49.934;9.138;2023-12-20T01:50:17;100365.47;;;4.80;100.00
13348;BME280;6743;49.934;9.138;2023-12-20T01:52:43;100366.19;;;4.82;100.00
13348;BME280;6743;49.934;9.138;2023-12-20T01:55:10;100316.38;;;4.48;100.00
13348;BME280;6743;49.934;9.138;2023-12-20T01:57:39;100374.91;;;4.82;100.00
13348;BME280;6743;49.934;9.138;2023-12-20T02:00:06;100374.91;;;4.82;100.00
13348;BME280;6743;49.934;9.138;2023-12-20T02:02:37;100381.97;;;4.82;100.00
13348;BME280;6743;49.934;9.138;2023-12-20T02:05:05;100376.81;;;4.80;100.00
13348;BME280;6743;49.934;9.138;2023-12-20T02:07:32;100375.03;;;4.81;100.00
13348;BME280;6743;49.934;9.138;2023-12-20T02:09:58;100367.16;;;4.81;100.00
13348;BME280;6743;49.934;9.138;2023-12-20T02:12:24;100375.87;;;4.81;100.00
13348;BME280;6743;49.934;9.138;2023-12-20T02:14:50;100367.97;;;4.81;100.00
13348;BME280;6743;49.934;9.138;2023-12-20T02:17:16;100369.06;;;4.79;100.00
13348;BME280;6743;49.934;9.138;2023-12-20T02:19:43;100371.69;;;4.79;100.00
13348;BME280;6743;49.934;9.138;2023-12-20T02:22:10;100372.53;;;4.79;100.00
13348;BME280;6743;49.934;9.138;2023-12-20T02:24:36;100376.94;;;4.79;100.00
13348;BME280;6743;49.934;9.138;2023-12-20T02:27:02;100371.69;;;4.79;100.00
13348;BME280;6743;49.934;9.138;2023-12-20T02:29:28;100330.81;;;4.54;100.00
13348;BME280;6743;49.934;9.138;2023-12-20T02:31:54;100364.75;;;4.78;100.00
13348;BME280;6743;49.934;9.138;2023-12-20T02:34:20;100380.41;;;4.79;100.00
13348;BME280;6743;49.934;9.138;2023-12-20T02:36:46;100376.94;;;4.79;100.00
13348;BME280;6743;49.934;9.138;2023-12-20T02:39:14;100380.41;;;4.79;100.00
13348;BME280;6743;49.934;9.138;2023-12-20T02:41:40;100375.16;;;4.79;100.00
13348;BME280;6743;49.934;9.138;2023-12-20T02:44:06;100368.94;;;4.80;100.00
13348;BME280;6743;49.934;9.138;2023-12-20T02:46:32;100371.56;;;4.80;100.00
13348;BME280;6743;49.934;9.138;2023-12-20T02:48:58;100368.09;;;4.80;100.00
13348;BME280;6743;49.934;9.138;2023-12-20T02:51:24;100364.62;;;4.79;100.00
13348;BME280;6743;49.934;9.138;2023-12-20T02:53:50;100360.34;;;4.78;100.00
13348;BME280;6743;49.934;9.138;2023-12-20T02:56:16;100359.37;;;4.79;100.00
13348;BME280;6743;49.934;9.138;2023-12-20T02:58:42;100366.44;;;4.79;100.00
13348;BME280;6743;49.934;9.138;2023-12-20T03:01:08;100357.72;;;4.78;100.00
13348;BME280;6743;49.934;9.138;2023-12-20T03:03:35;100355.59;;;4.72;100.00
13348;BME280;6743;49.934;9.138;2023-12-20T03:06:01;100371.69;;;4.79;100.00
13348;BME280;6743;49.934;9.138;2023-12-20T03:08:27;100363.81;;;4.79;100.00
13348;BME280;6743;49.934;9.138;2023-12-20T03:10:53;100366.44;;;4.79;100.00
13348;BME280;6743;49.934;9.138;2023-12-20T03:13:19;100375.16;;;4.79;100.00
13348;BME280;6743;49.934;9.138;2023-12-20T03:15:46;100362.84;;;4.80;100.00
13348;BME280;6743;49.934;9.138;2023-12-20T03:18:12;100376.81;;;4.80;100.00
13348;BME280;6743;49.934;9.138;2023-12-20T03:20:38;100385.53;;;4.81;100.00
13348;BME280;6743;49.934;9.138;2023-12-20T03:23:04;100392.59;;;4.80;100.00
13348;BME280;6743;49.934;9.138;2023-12-20T03:25:29;100386.37;;;4.81;100.00
13348;BME280;6743;49.934;9.138;2023-12-20T03:27:55;100366.19;;;4.82;100.00
13348;BME280;6743;49.934;9.138;2023-12-20T03:30:22;100368.94;;;4.80;100.00
13348;BME280;6743;49.934;9.138;2023-12-20T03:32:48;100381.97;;;4.82;100.00
13348;BME280;6743;49.934;9.138;2023-12-20T03:35:14;100371.44;;;4.82;100.00
13348;BME280;6743;49.934;9.138;2023-12-20T03:37:40;100378.38;;;4.83;100.00
13348;BME280;6743;49.934;9.138;2023-12-20T03:40:07;100388.06;;;4.82;100.00
13348;BME280;6743;49.934;9.138;2023-12-20T03:42:33;100388.16;;;4.81;100.00
13348;BME280;6743;49.934;9.138;2023-12-20T03:44:59;100382.09;;;4.80;100.00
13348;BME280;6743;49.934;9.138;2023-12-20T03:47:25;100387.78;;;4.85;100.00
13348;BME280;6743;49.934;9.138;2023-12-20T03:49:52;100384.09;;;4.88;100.00
13348;BME280;6743;49.934;9.138;2023-12-20T03:52:18;100363.69;;;4.80;100.00
13348;BME280;6743;49.934;9.138;2023-12-20T03:54:44;100388.38;;;4.89;100.00
13348;BME280;6743;49.934;9.138;2023-12-20T03:57:10;100385.63;;;4.90;100.00
13348;BME280;6743;49.934;9.138;2023-12-20T03:59:36;100384.81;;;4.90;100.00
13348;BME280;6743;49.934;9.138;2023-12-20T04:02:03;100380.75;;;4.86;100.00
13348;BME280;6743;49.934;9.138;2023-12-20T04:04:30;100385.63;;;4.90;100.00
13348;BME280;6743;49.934;9.138;2023-12-20T04:06:56;100381.22;;;4.91;100.00
13348;BME280;6743;49.934;9.138;2023-12-20T04:09:22;100384.66;;;4.91;100.00
13348;BME280;6743;49.934;9.138;2023-12-20T04:11:49;100382.03;;;4.91;100.00
13348;BME280;6743;49.934;9.138;2023-12-20T04:14:15;100392.53;;;4.91;100.00
13348;BME280;6743;49.934;9.138;2023-12-20T04:16:41;100394.22;;;4.92;100.00
13348;BME280;6743;49.934;9.138;2023-12-20T04:19:08;100383.84;;;4.91;100.00
13348;BME280;6743;49.934;9.138;2023-12-20T04:21:34;100384.53;;;4.93;100.00
13348;BME280;6743;49.934;9.138;2023-12-20T04:24:00;100387.03;;;4.94;100.00
13348;BME280;6743;49.934;9.138;2023-12-20T04:26:26;100397.56;;;4.94;100.00
13348;BME280;6743;49.934;9.138;2023-12-20T04:28:52;100395.78;;;4.95;100.00
13348;BME280;6743;49.934;9.138;2023-12-20T04:31:18;100393.72;;;4.98;100.00
13348;BME280;6743;49.934;9.138;2023-12-20T04:33:44;100390.06;;;4.90;100.00
13348;BME280;6743;49.934;9.138;2023-12-20T04:36:10;100396.22;;;5.00;100.00
13348;BME280;6743;49.934;9.138;2023-12-20T04:38:37;100403.03;;;5.02;100.00
13348;BME280;6743;49.934;9.138;2023-12-20T04:41:03;100404.00;;;5.01;100.00
13348;BME280;6743;49.934;9.138;2023-12-20T04:43:29;100403.28;;;4.99;100.00
13348;BME280;6743;49.934;9.138;2023-12-20T04:45:55;100410.09;;;5.02;100.00
13348;BME280;6743;49.934;9.138;2023-12-20T04:48:21;100399.56;;;5.02;100.00
13348;BME280;6743;49.934;9.138;2023-12-20T04:50:47;100407.34;;;5.03;100.00
13348;BME280;6743;49.934;9.138;2023-12-20T04:53:13;100406.50;;;5.03;100.00
13348;BME280;6743;49.934;9.138;2023-12-20T04:55:40;100407.34;;;5.03;100.00
13348;BME280;6743;49.934;9.138;2023-12-20T04:58:06;100411.62;;;5.04;100.00
13348;BME280;6743;49.934;9.138;2023-12-20T05:00:32;100411.62;;;5.04;100.00
13348;BME280;6743;49.934;9.138;2023-12-20T05:02:58;100427.41;;;5.04;100.00
13348;BME280;6743;49.934;9.138;2023-12-20T05:05:24;100413.66;;;5.01;100.00
13348;BME280;6743;49.934;9.138;2023-12-20T05:07:50;100429.22;;;5.04;100.00
13348;BME280;6743;49.934;9.138;2023-12-20T05:10:16;100423.13;;;5.03;100.00
13348;BME280;6743;49.934;9.138;2023-12-20T05:12:42;100421.44;;;5.02;100.00
13348;BME280;6743;49.934;9.138;2023-12-20T05:15:08;100429.31;;;5.02;100.00
13348;BME280;6743;49.934;9.138;2023-12-20T05:17:34;100436.25;;;5.03;100.00
13348;BME280;6743;49.934;9.138;2023-12-20T05:20:00;100433.63;;;5.03;100.00
13348;BME280;6743;49.934;9.138;2023-12-20T05:22:26;100439.72;;;5.04;100.00
13348;BME280;6743;49.934;9.138;2023-12-20T05:24:53;100437.94;;;5.04;100.00
13348;BME280;6743;49.934;9.138;2023-12-20T05:27:19;100438.75;;;5.05;100.00
13348;BME280;6743;49.934;9.138;2023-12-20T05:29:46;100444.00;;;5.05;100.00
13348;BME280;6743;49.934;9.138;2023-12-20T05:32:12;100446.63;;;5.05;100.00
13348;BME280;6743;49.934;9.138;2023-12-20T05:34:38;100440.06;;;4.99;100.00
13348;BME280;6743;49.934;9.138;2023-12-20T05:37:04;100451.06;;;5.04;100.00
13348;BME280;6743;49.934;9.138;2023-12-20T05:39:30;100449.41;;;5.03;100.00
13348;BME280;6743;49.934;9.138;2023-12-20T05:41:56;100448.69;;;5.01;100.00
13348;BME280;6743;49.934;9.138;2023-12-20T05:44:22;100454.91;;;5.00;100.00
13348;BME280;6743;49.934;9.138;2023-12-20T05:46:48;100469.84;;;5.00;100.00
13348;BME280;6743;49.934;9.138;2023-12-20T05:49:14;100465.53;;;4.99;100.00
13348;BME280;6743;49.934;9.138;2023-12-20T05:51:40;100480.34;;;5.00;100.00
13348;BME280;6743;49.934;9.138;2023-12-20T05:54:07;100480.34;;;5.00;100.00
13348;BME280;6743;49.934;9.138;2023-12-20T05:56:36;100480.34;;;5.00;100.00
13348;BME280;6743;49.934;9.138;2023-12-20T05:59:02;100476.88;;;4.99;100.00
13348;BME280;6743;49.934;9.138;2023-12-20T06:01:28;100496.12;;;5.00;100.00
13348;BME280;6743;49.934;9.138;2023-12-20T06:03:55;100495.28;;;4.99;100.00
13348;BME280;6743;49.934;9.138;2023-12-20T06:06:21;100503.56;;;4.95;100.00
13348;BME280;6743;49.934;9.138;2023-12-20T06:08:47;100505.81;;;4.99;100.00
13348;BME280;6743;49.934;9.138;2023-12-20T06:11:13;100457.37;;;4.70;100.00
13348;BME280;6743;49.934;9.138;2023-12-20T06:13:40;100510.22;;;4.99;100.00
13348;BME280;6743;49.934;9.138;2023-12-20T06:16:06;100510.22;;;4.99;100.00
13348;BME280;6743;49.934;9.138;2023-12-20T06:18:32;100524.47;;;4.96;100.00
13348;BME280;6743;49.934;9.138;2023-12-20T06:21:03;100515.75;;;4.96;100.00
13348;BME280;6743;49.934;9.138;2023-12-20T06:23:29;100528.16;;;4.94;100.00
13348;BME280;6743;49.934;9.138;2023-12-20T06:25:55;100533.31;;;4.95;100.00
13348;BME280;6743;49.934;9.138;2023-12-20T06:28:22;100540.47;;;4.93;100.00
13348;BME280;6743;49.934;9.138;2023-12-20T06:30:48;100535.34;;;4.92;100.00
13348;BME280;6743;49.934;9.138;2023-12-20T06:33:15;100536.19;;;4.92;100.00
13348;BME280;6743;49.934;9.138;2023-12-20T06:35:41;100540.84;;;4.89;100.00
13348;BME280;6743;49.934;9.138;2023-12-20T06:38:08;100552.22;;;4.89;100.00
13348;BME280;6743;49.934;9.138;2023-12-20T06:40:34;100552.56;;;4.85;100.00
13348;BME280;6743;49.934;9.138;2023-12-20T06:43:00;100552.69;;;4.83;100.00
13348;BME280;6743;49.934;9.138;2023-12-20T06:45:26;100554.59;;;4.81;100.00
13348;BME280;6743;49.934;9.138;2023-12-20T06:47:52;100558.28;;;4.79;100.00
13348;BME280;6743;49.934;9.138;2023-12-20T06:50:20;100554.25;;;4.74;100.00
13348;BME280;6743;49.934;9.138;2023-12-20T06:52:46;100552.69;;;4.72;100.00
13348;BME280;6743;49.934;9.138;2023-12-20T06:55:13;100555.56;;;4.69;100.00
13348;BME280;6743;49.934;9.138;2023-12-20T06:57:39;100555.78;;;4.66;100.00
13348;BME280;6743;49.934;9.138;2023-12-20T07:00:07;100555.22;;;4.62;100.00
13348;BME280;6743;49.934;9.138;2023-12-20T07:02:34;100563.31;;;4.59;100.00
13348;BME280;6743;49.934;9.138;2023-12-20T07:05:00;100548.03;;;4.42;100.00
13348;BME280;6743;49.934;9.138;2023-12-20T07:07:26;100561.28;;;4.41;100.00
13348;BME280;6743;49.934;9.138;2023-12-20T07:09:52;100564.88;;;4.40;100.00
13348;BME280;6743;49.934;9.138;2023-12-20T07:12:40;100550.88;;;4.28;100.00
13348;BME280;6743;49.934;9.138;2023-12-20T07:15:08;100560.66;;;4.37;100.00
13348;BME280;6743;49.934;9.138;2023-12-20T07:17:34;100565.09;;;4.36;100.00
13348;BME280;6743;49.934;9.138;2023-12-20T07:20:01;100564.50;;;4.33;100.00
13348;BME280;6743;49.934;9.138;2023-12-20T07:22:29;100565.44;;;4.32;100.00
13348;BME280;6743;49.934;9.138;2023-12-20T07:24:57;100571.91;;;4.28;100.00
13348;BME280;6743;49.934;9.138;2023-12-20T07:27:23;100566.97;;;4.23;100.00
13348;BME280;6743;49.934;9.138;2023-12-20T07:29:49;100575.09;;;4.20;100.00
13348;BME280;6743;49.934;9.138;2023-12-20T07:32:15;100574.28;;;4.20;100.00
13348;BME280;6743;49.934;9.138;2023-12-20T07:34:42;100572.81;;;4.16;100.00
13348;BME280;6743;49.934;9.138;2023-12-20T07:37:08;100570.31;;;4.14;100.00
13348;BME280;6743;49.934;9.138;2023-12-20T07:39:35;100564.81;;;4.06;100.00
13348;BME280;6743;49.934;9.138;2023-12-20T07:42:02;100576.25;;;4.05;100.00
13348;BME280;6743;49.934;9.138;2023-12-20T07:44:28;100568.75;;;4.01;100.00
13348;BME280;6743;49.934;9.138;2023-12-20T07:46:55;100579.47;;;4.09;100.00
13348;BME280;6743;49.934;9.138;2023-12-20T07:49:26;100580.56;;;4.17;100.00
13348;BME280;6743;49.934;9.138;2023-12-20T07:51:52;100587.41;;;4.20;100.00
13348;BME280;6743;49.934;9.138;2023-12-20T07:54:18;100591.56;;;4.22;100.00
13348;BME280;6743;49.934;9.138;2023-12-20T07:56:56;100596.59;;;4.25;100.00
13348;BME280;6743;49.934;9.138;2023-12-20T07:59:22;100594.56;;;4.29;100.00
13348;BME280;6743;49.934;9.138;2023-12-20T08:01:49;100599.69;;;4.30;100.00
13348;BME280;6743;49.934;9.138;2023-12-20T08:04:15;100597.81;;;4.32;100.00
13348;BME280;6743;49.934;9.138;2023-12-20T08:06:43;100598.53;;;4.34;100.00
13348;BME280;6743;49.934;9.138;2023-12-20T08:09:09;100600.91;;;4.37;100.00
13348;BME280;6743;49.934;9.138;2023-12-20T08:11:35;100561.72;;;4.12;100.00
13348;BME280;6743;49.934;9.138;2023-12-20T08:14:01;100610.25;;;4.42;100.00
13348;BME280;6743;49.934;9.138;2023-12-20T08:16:27;100615.12;;;4.46;100.00
13348;BME280;6743;49.934;9.138;2023-12-20T08:18:53;100618.34;;;4.50;100.00
13348;BME280;6743;49.934;9.138;2023-12-20T08:21:20;100623.37;;;4.53;100.00
13348;BME280;6743;49.934;9.138;2023-12-20T08:23:48;100596.28;;;4.41;100.00
13348;BME280;6743;49.934;9.138;2023-12-20T08:26:18;100611.66;;;4.46;100.00
13348;BME280;6743;49.934;9.138;2023-12-20T08:28:46;100630.69;;;4.60;100.00
13348;BME280;6743;49.934;9.138;2023-12-20T08:31:16;100643.56;;;4.63;100.00
13348;BME280;6743;49.934;9.138;2023-12-20T08:33:43;100640.13;;;4.63;100.00
13348;BME280;6743;49.934;9.138;2023-12-20T08:36:10;100647.66;;;4.67;100.00
13348;BME280;6743;49.934;9.138;2023-12-20T08:38:37;100650.28;;;4.67;100.00
13348;BME280;6743;49.934;9.138;2023-12-20T08:41:03;100621.97;;;4.49;100.00
13348;BME280;6743;49.934;9.138;2023-12-20T08:43:30;100649.09;;;4.71;100.00
13348;BME280;6743;49.934;9.138;2023-12-20T08:46:01;100651.59;;;4.73;100.00
13348;BME280;6743;49.934;9.138;2023-12-20T08:48:28;100648.97;;;4.73;100.00
13348;BME280;6743;49.934;9.138;2023-12-20T08:50:54;100649.81;;;4.73;100.00
13348;BME280;6743;49.934;9.138;2023-12-20T08:53:20;100624.38;;;4.63;100.00
13348;BME280;6743;49.934;9.138;2023-12-20T08:55:47;100638.25;;;4.76;100.00
13348;BME280;6743;49.934;9.138;2023-12-20T08:58:13;100644.44;;;4.75;100.00
13348;BME280;6743;49.934;9.138;2023-12-20T09:00:39;100645.16;;;4.77;100.00
13348;BME280;6743;49.934;9.138;2023-12-20T09:03:05;100645.16;;;4.77;100.00
13348;BME280;6743;49.934;9.138;2023-12-20T09:05:31;100638.81;;;4.80;100.00
13348;BME280;6743;49.934;9.138;2023-12-20T09:07:57;100651.84;;;4.81;100.00
13348;BME280;6743;49.934;9.138;2023-12-20T09:10:23;100652.59;;;4.83;100.00
13348;BME280;6743;49.934;9.138;2023-12-20T09:12:51;100631.19;;;4.77;100.00
13348;BME280;6743;49.934;9.138;2023-12-20T09:15:21;100638.22;;;4.87;100.00
13348;BME280;6743;49.934;9.138;2023-12-20T09:17:47;100645.06;;;4.90;100.00
13348;BME280;6743;49.934;9.138;2023-12-20T09:20:13;100651.16;;;4.90;100.00
13348;BME280;6743;49.934;9.138;2023-12-20T09:22:39;100653.41;;;4.95;100.00
13348;BME280;6743;49.934;9.138;2023-12-20T09:25:07;100666.09;;;5.01;100.00
13348;BME280;6743;49.934;9.138;2023-12-20T09:27:33;100632.12;;;4.87;100.00
13348;BME280;6743;49.934;9.138;2023-12-20T09:30:00;100664.66;;;5.08;100.00
13348;BME280;6743;49.934;9.138;2023-12-20T09:32:26;100651.50;;;5.08;100.00
13348;BME280;6743;49.934;9.138;2023-12-20T09:34:52;100663.44;;;5.12;100.00
13348;BME280;6743;49.934;9.138;2023-12-20T09:37:18;100650.91;;;5.04;100.00
13348;BME280;6743;49.934;9.138;2023-12-20T09:39:44;100657.13;;;5.14;100.00
13348;BME280;6743;49.934;9.138;2023-12-20T09:42:11;100657.00;;;5.16;100.00
13348;BME280;6743;49.934;9.138;2023-12-20T09:44:39;100654.09;;;5.19;100.00
13348;BME280;6743;49.934;9.138;2023-12-20T09:47:08;100656.75;;;5.19;100.00
13348;BME280;6743;49.934;9.138;2023-12-20T09:49:35;100660.22;;;5.20;100.00
13348;BME280;6743;49.934;9.138;2023-12-20T09:52:05;100647.22;;;5.18;100.00
13348;BME280;6743;49.934;9.138;2023-12-20T09:54:33;100655.69;;;5.22;100.00
13348;BME280;6743;49.934;9.138;2023-12-20T09:56:59;100661.66;;;5.24;100.00
13348;BME280;6743;49.934;9.138;2023-12-20T09:59:25;100664.19;;;5.25;100.00
13348;BME280;6743;49.934;9.138;2023-12-20T10:01:55;100645.41;;;5.19;100.00
13348;BME280;6743;49.934;9.138;2023-12-20T10:04:22;100658.44;;;5.31;100.00
13348;BME280;6743;49.934;9.138;2023-12-20T10:06:48;100665.38;;;5.32;100.00
13348;BME280;6743;49.934;9.138;2023-12-20T10:09:14;100665.94;;;5.36;100.00
13348;BME280;6743;49.934;9.138;2023-12-20T10:11:40;100667.50;;;5.38;100.00
13348;BME280;6743;49.934;9.138;2023-12-20T10:14:08;100606.06;;;5.06;100.00
13348;BME280;6743;49.934;9.138;2023-12-20T10:16:34;100655.06;;;5.40;100.00
13348;BME280;6743;49.934;9.138;2023-12-20T10:19:00;100661.75;;;5.44;100.00
13348;BME280;6743;49.934;9.138;2023-12-20T10:21:27;100660.66;;;5.47;100.00
13348;BME280;6743;49.934;9.138;2023-12-20T10:23:54;100656.22;;;5.47;100.00
13348;BME280;6743;49.934;9.138;2023-12-20T10:26:20;100657.91;;;5.48;100.00
13348;BME280;6743;49.934;9.138;2023-12-20T10:28:50;100655.16;;;5.50;100.00
13348;BME280;6743;49.934;9.138;2023-12-20T10:31:26;100643.81;;;5.49;100.00
13348;BME280;6743;49.934;9.138;2023-12-20T10:33:53;100642.84;;;5.50;100.00
13348;BME280;6743;49.934;9.138;2023-12-20T10:36:19;100634.94;;;5.50;100.00
13348;BME280;6743;49.934;9.138;2023-12-20T10:38:46;100631.47;;;5.50;100.00
13348;BME280;6743;49.934;9.138;2023-12-20T10:41:15;100616.06;;;5.34;100.00
13348;BME280;6743;49.934;9.138;2023-12-20T10:43:43;100629.69;;;5.50;100.00
13348;BME280;6743;49.934;9.138;2023-12-20T10:46:10;100628.62;;;5.53;100.00
13348;BME280;6743;49.934;9.138;2023-12-20T10:48:36;100636.38;;;5.54;100.00
13348;BME280;6743;49.934;9.138;2023-12-20T10:51:05;100631.00;;;5.56;100.00
13348;BME280;6743;49.934;9.138;2023-12-20T10:53:33;100622.97;;;5.58;100.00
13348;BME280;6743;49.934;9.138;2023-12-20T10:56:00;100619.50;;;5.57;100.00
13348;BME280;6743;49.934;9.138;2023-12-20T10:58:29;100623.69;;;5.60;100.00
13348;BME280;6743;49.934;9.138;2023-12-20T11:01:00;100615.53;;;5.63;100.00
13348;BME280;6743;49.934;9.138;2023-12-20T11:03:27;100604.88;;;5.64;100.00
13348;BME280;6743;49.934;9.138;2023-12-20T11:06:02;100620.41;;;5.67;100.00
13348;BME280;6743;49.934;9.138;2023-12-20T11:08:33;100607.00;;;5.70;100.00
13348;BME280;6743;49.934;9.138;2023-12-20T11:11:06;100606.91;;;5.72;100.00
13348;BME280;6743;49.934;9.138;2023-12-20T11:13:37;100606.63;;;5.75;100.00
13348;BME280;6743;49.934;9.138;2023-12-20T11:16:07;100593.22;;;5.78;100.00
13348;BME280;6743;49.934;9.138;2023-12-20T11:18:33;100596.59;;;5.80;100.00
13348;BME280;6743;49.934;9.138;2023-12-20T11:21:01;100588.53;;;5.81;100.00
13348;BME280;6743;49.934;9.138;2023-12-20T11:23:27;100585.91;;;5.81;100.00
13348;BME280;6743;49.934;9.138;2023-12-20T11:25:56;100584.94;;;5.82;100.00
13348;BME280;6743;49.934;9.138;2023-12-20T11:28:25;100590.94;;;5.84;100.00
13348;BME280;6743;49.934;9.138;2023-12-20T11:30:52;100585.91;;;5.81;100.00
13348;BME280;6743;49.934;9.138;2023-12-20T11:33:21;100565.84;;;5.69;100.00
13348;BME280;6743;49.934;9.138;2023-12-20T11:35:48;100580.63;;;5.81;100.00
13348;BME280;6743;49.934;9.138;2023-12-20T11:38:14;100578.59;;;5.85;100.00
13348;BME280;6743;49.934;9.138;2023-12-20T11:40:41;100578.25;;;5.89;100.00
13348;BME280;6743;49.934;9.138;2023-12-20T11:43:07;100576.91;;;5.95;100.00
13348;BME280;6743;49.934;9.138;2023-12-20T11:45:34;100579.28;;;5.98;100.00
13348;BME280;6743;49.934;9.138;2023-12-20T11:48:02;100581.81;;;6.00;100.00
13348;BME280;6743;49.934;9.138;2023-12-20T11:50:28;100579.72;;;6.03;100.00
13348;BME280;6743;49.934;9.138;2023-12-20T11:52:56;100591.81;;;6.06;100.00
13348;BME280;6743;49.934;9.138;2023-12-20T11:55:22;100588.91;;;6.09;100.00
13348;BME280;6743;49.934;9.138;2023-12-20T11:57:49;100530.88;;;5.78;100.00
13348;BME280;6743;49.934;9.138;2023-12-20T12:00:17;100588.66;;;6.12;100.00
13348;BME280;6743;49.934;9.138;2023-12-20T12:02:55;100592.03;;;6.14;100.00
13348;BME280;6743;49.934;9.138;2023-12-20T12:05:21;100582.31;;;6.14;100.00
13348;BME280;6743;49.934;9.138;2023-12-20T12:07:47;100571.63;;;6.16;100.00
13348;BME280;6743;49.934;9.138;2023-12-20T12:10:13;100529.66;;;5.93;100.00
13348;BME280;6743;49.934;9.138;2023-12-20T12:12:39;100578.22;;;6.21;100.00
13348;BME280;6743;49.934;9.138;2023-12-20T12:15:06;100570.16;;;6.23;100.00
13348;BME280;6743;49.934;9.138;2023-12-20T12:17:33;100573.63;;;6.23;100.00
13348;BME280;6743;49.934;9.138;2023-12-20T12:20:03;100568.34;;;6.23;100.00
13348;BME280;6743;49.934;9.138;2023-12-20T12:22:30;100576.25;;;6.23;100.00
13348;BME280;6743;49.934;9.138;2023-12-20T12:24:59;100566.31;;;6.27;100.00
13348;BME280;6743;49.934;9.138;2023-12-20T12:27:25;100569.78;;;6.27;100.00
13348;BME280;6743;49.934;9.138;2023-12-20T12:30:01;100557.19;;;6.31;100.00
13348;BME280;6743;49.934;9.138;2023-12-20T12:32:28;100557.66;;;6.36;100.00
13348;BME280;6743;49.934;9.138;2023-12-20T12:34:54;100549.47;;;6.39;100.00
13348;BME280;6743;49.934;9.138;2023-12-20T12:37:20;100554.47;;;6.42;100.00
13348;BME280;6743;49.934;9.138;2023-12-20T12:39:49;100564.19;;;6.42;100.00
13348;BME280;6743;49.934;9.138;2023-12-20T12:42:15;100551.78;;;6.32;100.00
13348;BME280;6743;49.934;9.138;2023-12-20T12:44:41;100558.91;;;6.42;100.00
13348;BME280;6743;49.934;9.138;2023-12-20T12:47:07;100550.16;;;6.41;100.00
13348;BME280;6743;49.934;9.138;2023-12-20T12:49:33;100534.47;;;6.40;100.00
13348;BME280;6743;49.934;9.138;2023-12-20T12:51:59;100561.78;;;6.39;100.00
13348;BME280;6743;49.934;9.138;2023-12-20T12:54:26;100540.59;;;6.40;100.00
13348;BME280;6743;49.934;9.138;2023-12-20T12:56:52;100529.09;;;6.41;100.00